createdAt,value
2023-05-04T00:00:00.577Z,12.22
2023-05-04T00:02:27.898Z,12.18
2023-05-04T00:04:55.514Z,12.06
2023-05-04T00:07:23.077Z,11.82
2023-05-04T00:09:51.159Z,11.64
2023-05-04T00:12:18.938Z,11.48
2023-05-04T00:14:46.058Z,11.36
2023-05-04T00:17:13.332Z,11.66
2023-05-04T00:19:42.447Z,12.01
2023-05-04T00:22:09.835Z,12.11
2023-05-04T00:24:37.088Z,12.02
2023-05-04T00:27:04.639Z,11.89
2023-05-04T00:29:32.154Z,11.76
2023-05-04T00:31:59.301Z,11.63
2023-05-04T00:34:27.058Z,11.48
2023-05-04T00:36:54.234Z,11.81
2023-05-04T00:39:22.876Z,12.17
2023-05-04T00:41:50.138Z,12.34
2023-05-04T00:44:17.565Z,12.21
2023-05-04T00:46:44.857Z,12.02
2023-05-04T00:49:13.274Z,11.83
2023-05-04T00:51:41.070Z,11.66
2023-05-04T00:54:08.160Z,11.58
2023-05-04T00:56:41.502Z,11.92
2023-05-04T00:59:08.605Z,12.13
2023-05-04T01:01:36.365Z,12.24
2023-05-04T01:04:04.390Z,12.08
2023-05-04T01:07:07.464Z,11.94
2023-05-04T01:09:34.867Z,11.68
2023-05-04T01:12:22.729Z,11.65
2023-05-04T01:14:53.990Z,12.03
2023-05-04T01:17:22.602Z,12.29
2023-05-04T01:19:51.342Z,12.19
2023-05-04T01:22:18.677Z,12.15
2023-05-04T01:24:46.176Z,11.95
2023-05-04T01:27:45.663Z,11.79
2023-05-04T01:30:45.883Z,11.77
2023-05-04T01:33:16.162Z,12.09
2023-05-04T01:35:43.517Z,12.42
2023-05-04T01:38:11.334Z,12.25
2023-05-04T01:40:39.988Z,12.10
2023-05-04T01:43:07.534Z,11.98
2023-05-04T01:45:34.933Z,11.80
2023-05-04T01:48:02.099Z,12.10
2023-05-04T01:50:29.466Z,12.36
2023-05-04T01:52:57.008Z,12.34
2023-05-04T01:55:24.157Z,12.32
2023-05-04T01:57:51.731Z,12.08
2023-05-04T02:00:19.091Z,11.87
2023-05-04T02:02:46.823Z,11.66
2023-05-04T02:05:17.561Z,11.82
2023-05-04T02:07:44.900Z,12.18
2023-05-04T02:10:12.646Z,12.28
2023-05-04T02:12:43.360Z,12.24
2023-05-04T02:15:10.919Z,11.92
2023-05-04T02:17:38.199Z,11.71
2023-05-04T02:20:06.677Z,11.56
2023-05-04T02:22:35.258Z,11.97
2023-05-04T02:25:02.476Z,12.27
2023-05-04T02:27:29.656Z,12.20
2023-05-04T02:29:58.620Z,11.94
2023-05-04T02:32:26.576Z,11.78
2023-05-04T02:34:54.348Z,11.59
2023-05-04T02:37:22.490Z,11.42
2023-05-04T02:39:49.891Z,11.70
2023-05-04T02:42:17.550Z,12.35
2023-05-04T02:44:44.819Z,12.23
2023-05-04T02:47:12.668Z,12.26
2023-05-04T02:49:39.791Z,12.00
2023-05-04T02:52:07.167Z,11.74
2023-05-04T02:54:34.809Z,11.59
2023-05-04T02:57:01.815Z,12.32
2023-05-04T02:59:28.989Z,12.35
2023-05-04T03:01:56.242Z,12.09
2023-05-04T03:04:23.571Z,12.04
2023-05-04T03:06:51.541Z,11.84
2023-05-04T03:09:19.350Z,11.61
2023-05-04T03:11:46.525Z,11.41
2023-05-04T03:14:13.686Z,11.70
2023-05-04T03:16:41.715Z,12.37
2023-05-04T03:19:09.254Z,12.41
2023-05-04T03:21:36.324Z,12.38
2023-05-04T03:24:04.574Z,12.15
2023-05-04T03:26:32.118Z,12.05
2023-05-04T03:28:59.150Z,11.90
2023-05-04T03:31:26.522Z,11.88
2023-05-04T03:33:53.942Z,12.10
2023-05-04T03:36:21.425Z,12.61
2023-05-04T03:38:49.312Z,12.73
2023-05-04T03:41:16.427Z,12.67
2023-05-04T03:43:43.709Z,12.46
2023-05-04T03:46:11.946Z,12.24
2023-05-04T03:48:40.313Z,12.07
2023-05-04T03:51:11.518Z,12.11
2023-05-04T03:53:38.812Z,12.57
2023-05-04T03:56:08.458Z,12.81
2023-05-04T03:58:35.513Z,12.77
2023-05-04T04:01:04.101Z,12.78
2023-05-04T04:03:31.805Z,12.64
2023-05-04T04:05:59.349Z,12.42
2023-05-04T04:08:26.975Z,12.30
2023-05-04T04:10:54.465Z,12.33
2023-05-04T04:13:21.945Z,12.86
2023-05-04T04:15:49.164Z,13.32
2023-05-04T04:18:16.469Z,13.53
2023-05-04T04:20:43.688Z,13.31
2023-05-04T04:23:11.080Z,13.25
2023-05-04T04:25:38.561Z,13.03
2023-05-04T04:28:05.608Z,12.87
2023-05-04T04:30:33.016Z,12.69
2023-05-04T04:33:00.115Z,12.97
2023-05-04T04:35:27.779Z,13.55
2023-05-04T04:37:55.387Z,13.62
2023-05-04T04:40:22.825Z,13.62
2023-05-04T04:42:49.806Z,13.55
2023-05-04T04:45:17.299Z,13.39
2023-05-04T04:47:45.355Z,13.34
2023-05-04T04:50:13.285Z,13.14
2023-05-04T04:52:41.622Z,12.89
2023-05-04T04:55:09.309Z,13.13
2023-05-04T04:57:36.406Z,13.46
2023-05-04T05:00:09.690Z,13.81
2023-05-04T05:02:37.108Z,13.68
2023-05-04T05:05:04.793Z,13.34
2023-05-04T05:07:33.105Z,12.98
2023-05-04T05:10:00.306Z,12.96
2023-05-04T05:12:27.396Z,12.93
2023-05-04T05:14:54.635Z,12.92
2023-05-04T05:17:21.810Z,13.21
2023-05-04T05:19:49.470Z,13.82
2023-05-04T05:22:16.941Z,14.35
2023-05-04T05:24:44.114Z,14.82
2023-05-04T05:27:11.185Z,14.93
2023-05-04T05:29:38.920Z,14.69
2023-05-04T05:32:06.331Z,14.58
2023-05-04T05:34:33.833Z,14.58
2023-05-04T05:37:01.070Z,14.56
2023-05-04T05:39:29.295Z,14.50
2023-05-04T05:41:58.405Z,14.58
2023-05-04T05:44:25.875Z,14.85
2023-05-04T05:46:52.900Z,15.39
2023-05-04T05:49:20.016Z,16.11
2023-05-04T05:51:47.622Z,16.86
2023-05-04T05:54:15.359Z,17.30
2023-05-04T05:56:42.577Z,17.53
2023-05-04T05:59:09.837Z,17.71
2023-05-04T06:01:37.081Z,17.64
2023-05-04T06:04:04.419Z,17.65
2023-05-04T06:06:31.910Z,17.77
2023-05-04T06:09:00.559Z,17.92
2023-05-04T06:11:27.721Z,18.38
2023-05-04T06:13:55.422Z,18.27
2023-05-04T06:16:25.540Z,18.27
2023-05-04T06:18:52.634Z,18.23
2023-05-04T06:21:19.936Z,18.72
2023-05-04T06:23:47.827Z,19.23
2023-05-04T06:26:14.955Z,19.29
2023-05-04T06:28:42.093Z,19.35
2023-05-04T06:31:09.303Z,19.68
2023-05-04T06:33:36.445Z,19.76
2023-05-04T06:36:03.834Z,20.00
2023-05-04T06:38:31.344Z,20.31
2023-05-04T06:40:58.496Z,20.45
2023-05-04T06:43:25.951Z,20.69
2023-05-04T06:45:53.348Z,20.66
2023-05-04T06:48:20.361Z,20.60
2023-05-04T06:50:47.649Z,20.11
2023-05-04T06:53:14.882Z,19.33
2023-05-04T06:55:42.282Z,18.88
2023-05-04T06:58:09.407Z,18.45
2023-05-04T07:00:37.120Z,18.35
2023-05-04T07:03:04.416Z,18.44
2023-05-04T07:05:37.145Z,18.44
2023-05-04T07:08:04.780Z,18.41
2023-05-04T07:10:32.798Z,18.49
2023-05-04T07:12:59.963Z,18.53
2023-05-04T07:15:27.437Z,18.60
2023-05-04T07:17:54.784Z,18.74
2023-05-04T07:20:25.038Z,18.76
2023-05-04T07:22:56.573Z,18.77
2023-05-04T07:25:25.139Z,18.86
2023-05-04T07:27:53.342Z,18.80
2023-05-04T07:30:21.621Z,18.82
2023-05-04T07:32:49.019Z,18.78
2023-05-04T07:35:16.574Z,18.61
2023-05-04T07:37:44.105Z,18.48
2023-05-04T07:40:11.963Z,18.44
2023-05-04T07:42:39.066Z,18.42
2023-05-04T07:45:08.624Z,18.37
2023-05-04T07:47:37.331Z,18.23
2023-05-04T07:50:05.334Z,18.23
2023-05-04T07:52:33.622Z,18.28
2023-05-04T07:55:00.900Z,18.26
2023-05-04T07:57:27.939Z,18.22
2023-05-04T07:59:56.274Z,18.17
2023-05-04T08:02:23.906Z,18.24
2023-05-04T08:04:51.452Z,18.48
2023-05-04T08:07:19.367Z,18.77
2023-05-04T08:09:46.712Z,18.89
2023-05-04T08:12:16.872Z,18.94
2023-05-04T08:14:47.864Z,18.93
2023-05-04T08:17:15.038Z,19.00
2023-05-04T08:19:42.067Z,19.08
2023-05-04T08:22:09.628Z,18.99
2023-05-04T08:24:36.616Z,18.81
2023-05-04T08:27:08.033Z,18.81
2023-05-04T08:29:37.583Z,18.84
2023-05-04T08:32:05.297Z,18.85
2023-05-04T08:34:32.798Z,18.93
2023-05-04T08:37:00.163Z,18.95
2023-05-04T08:39:27.143Z,19.03
2023-05-04T08:41:54.421Z,18.92
2023-05-04T08:44:22.033Z,18.96
2023-05-04T08:46:53.824Z,18.91
2023-05-04T08:49:21.700Z,18.88
2023-05-04T08:51:52.580Z,18.80
2023-05-04T08:54:21.627Z,18.59
2023-05-04T08:56:51.415Z,18.49
2023-05-04T08:59:23.397Z,18.31
2023-05-04T09:01:56.587Z,18.22
2023-05-04T09:04:26.455Z,18.05
2023-05-04T09:06:54.945Z,17.87
2023-05-04T09:09:22.583Z,17.91
2023-05-04T09:11:50.361Z,17.92
2023-05-04T09:14:17.331Z,17.87
2023-05-04T09:16:44.574Z,17.75
2023-05-04T09:19:19.891Z,17.77
2023-05-04T09:21:51.437Z,17.85
2023-05-04T09:24:28.698Z,17.82
2023-05-04T09:26:56.608Z,17.70
2023-05-04T09:29:25.839Z,17.74
2023-05-04T09:31:52.978Z,17.82
2023-05-04T09:34:21.613Z,17.91
2023-05-04T09:37:02.361Z,18.03
2023-05-04T09:39:30.676Z,18.08
2023-05-04T09:41:58.161Z,18.15
2023-05-04T09:44:27.487Z,18.17
2023-05-04T09:46:57.919Z,18.20
2023-05-04T09:49:32.901Z,18.16
2023-05-04T09:52:04.051Z,18.04
2023-05-04T09:54:35.031Z,18.05
2023-05-04T09:57:12.247Z,18.06
2023-05-04T09:59:40.004Z,18.01
2023-05-04T10:02:21.200Z,17.92
2023-05-04T10:04:57.502Z,17.69
2023-05-04T10:07:25.171Z,17.57
2023-05-04T10:09:53.403Z,17.41
2023-05-04T10:12:20.562Z,17.29
2023-05-04T10:14:47.675Z,17.17
2023-05-04T10:17:27.466Z,17.02
2023-05-04T10:20:07.816Z,16.82
2023-05-04T10:22:51.702Z,16.75
2023-05-04T10:25:22.663Z,16.51
2023-05-04T10:28:11.086Z,16.35
2023-05-04T10:30:40.255Z,16.32
2023-05-04T10:33:08.036Z,16.37
2023-05-04T10:35:35.482Z,16.28
2023-05-04T10:38:04.466Z,16.18
2023-05-04T10:40:39.745Z,15.95
2023-05-04T10:43:08.453Z,15.80
2023-05-04T10:45:40.162Z,15.56
2023-05-04T10:48:08.594Z,15.94
2023-05-04T10:50:44.014Z,16.17
2023-05-04T10:53:12.357Z,16.12
2023-05-04T10:55:41.807Z,16.13
2023-05-04T10:58:11.366Z,16.19
2023-05-04T11:00:40.532Z,15.87
2023-05-04T11:03:08.325Z,15.73
2023-05-04T11:05:43.432Z,15.70
2023-05-04T11:08:22.353Z,15.76
2023-05-04T11:11:01.630Z,15.77
2023-05-04T11:13:35.179Z,15.68
2023-05-04T11:16:02.633Z,15.55
2023-05-04T11:18:31.824Z,15.62
2023-05-04T11:20:59.030Z,15.62
2023-05-04T11:23:26.586Z,16.24
2023-05-04T11:25:55.226Z,16.53
2023-05-04T11:28:43.273Z,16.76
2023-05-04T11:31:14.509Z,16.71
2023-05-04T11:33:48.976Z,16.64
2023-05-04T11:36:16.699Z,16.47
2023-05-04T11:38:43.984Z,16.22
2023-05-04T11:41:15.253Z,16.18
2023-05-04T11:43:44.161Z,15.89
2023-05-04T11:46:11.856Z,15.64
2023-05-04T11:48:40.006Z,15.58
2023-05-04T11:51:07.656Z,15.67
2023-05-04T11:53:39.229Z,15.78
2023-05-04T11:56:08.860Z,15.77
2023-05-04T11:58:36.873Z,15.68
2023-05-04T12:01:04.541Z,15.68
2023-05-04T12:03:50.979Z,16.31
2023-05-04T12:06:31.426Z,16.61
2023-05-04T12:09:04.698Z,16.46
2023-05-04T12:11:32.094Z,16.09
2023-05-04T12:14:02.316Z,16.01
2023-05-04T12:16:29.497Z,15.95
2023-05-04T12:19:08.433Z,15.94
2023-05-04T12:21:36.444Z,15.76
2023-05-04T12:24:04.069Z,15.74
2023-05-04T12:26:31.419Z,15.69
2023-05-04T12:28:58.746Z,15.61
2023-05-04T12:31:26.369Z,15.46
2023-05-04T12:33:53.657Z,15.40
2023-05-04T12:36:21.700Z,15.40
2023-05-04T12:38:48.935Z,15.93
2023-05-04T12:41:16.274Z,16.52
2023-05-04T12:43:43.294Z,16.76
2023-05-04T12:46:10.673Z,16.48
2023-05-04T12:48:38.037Z,16.49
2023-05-04T12:51:05.291Z,16.52
2023-05-04T12:53:32.686Z,16.41
2023-05-04T12:56:01.447Z,16.26
2023-05-04T12:58:28.856Z,16.09
2023-05-04T13:00:58.105Z,15.98
2023-05-04T13:03:25.537Z,15.98
2023-05-04T13:05:52.947Z,15.98
2023-05-04T13:08:20.118Z,15.91
2023-05-04T13:10:47.490Z,15.79
2023-05-04T13:13:17.341Z,15.87
2023-05-04T13:15:45.084Z,16.40
2023-05-04T13:18:13.408Z,16.65
2023-05-04T13:20:41.045Z,16.81
2023-05-04T13:23:08.423Z,16.61
2023-05-04T13:25:35.679Z,16.40
2023-05-04T13:28:03.573Z,16.26
2023-05-04T13:30:31.207Z,16.15
2023-05-04T13:32:58.617Z,16.01
2023-05-04T13:35:25.709Z,15.89
2023-05-04T13:37:53.105Z,15.61
2023-05-04T13:40:20.724Z,15.58
2023-05-04T13:42:48.434Z,15.54
2023-05-04T13:45:15.807Z,15.52
2023-05-04T13:47:43.571Z,15.53
2023-05-04T13:50:10.802Z,16.06
2023-05-04T13:52:38.665Z,16.41
2023-05-04T13:55:06.335Z,16.22
2023-05-04T13:57:33.575Z,16.07
2023-05-04T14:00:07.618Z,15.85
2023-05-04T14:02:38.853Z,15.68
2023-05-04T14:05:08.203Z,15.51
2023-05-04T14:07:35.665Z,15.38
2023-05-04T14:10:03.938Z,15.21
2023-05-04T14:12:31.454Z,15.12
2023-05-04T14:14:59.287Z,15.09
2023-05-04T14:17:26.608Z,15.47
2023-05-04T14:19:53.905Z,15.76
2023-05-04T14:22:21.522Z,15.90
2023-05-04T14:24:50.208Z,15.78
2023-05-04T14:27:17.713Z,15.58
2023-05-04T14:29:47.146Z,15.22
2023-05-04T14:32:15.665Z,15.04
2023-05-04T14:34:42.916Z,14.86
2023-05-04T14:37:10.766Z,14.75
2023-05-04T14:39:39.560Z,14.75
2023-05-04T14:42:07.045Z,15.10
2023-05-04T14:44:34.515Z,15.26
2023-05-04T14:47:06.084Z,15.42
2023-05-04T14:49:37.676Z,15.36
2023-05-04T14:52:05.445Z,15.32
2023-05-04T14:54:32.735Z,15.08
2023-05-04T14:57:00.409Z,14.85
2023-05-04T14:59:27.978Z,14.80
2023-05-04T15:01:55.738Z,14.61
2023-05-04T15:04:23.151Z,14.53
2023-05-04T15:06:50.491Z,14.91
2023-05-04T15:09:17.615Z,15.12
2023-05-04T15:11:44.965Z,15.13
2023-05-04T15:14:12.217Z,14.99
2023-05-04T15:16:39.231Z,14.70
2023-05-04T15:19:07.185Z,14.43
2023-05-04T15:21:34.510Z,14.25
2023-05-04T15:24:02.187Z,14.07
2023-05-04T15:26:31.171Z,13.99
2023-05-04T15:28:58.755Z,13.80
2023-05-04T15:31:26.068Z,13.78
2023-05-04T15:33:53.999Z,14.31
2023-05-04T15:36:21.260Z,14.52
2023-05-04T15:38:48.269Z,14.53
2023-05-04T15:41:16.082Z,14.31
2023-05-04T15:43:43.344Z,14.04
2023-05-04T15:46:10.479Z,13.74
2023-05-04T15:48:37.721Z,13.60
2023-05-04T15:51:11.044Z,13.46
2023-05-04T15:53:38.904Z,13.21
2023-05-04T15:56:06.481Z,13.17
2023-05-04T15:58:34.128Z,13.10
2023-05-04T16:01:04.152Z,13.61
2023-05-04T16:03:32.276Z,13.86
2023-05-04T16:06:00.064Z,13.89
2023-05-04T16:08:27.817Z,13.71
2023-05-04T16:10:55.878Z,13.44
2023-05-04T16:13:23.296Z,13.24
2023-05-04T16:15:54.056Z,13.03
2023-05-04T16:18:21.260Z,12.95
2023-05-04T16:20:48.903Z,12.79
2023-05-04T16:23:17.837Z,12.68
2023-05-04T16:25:44.912Z,12.58
2023-05-04T16:28:12.668Z,12.43
2023-05-04T16:30:42.476Z,12.32
2023-05-04T16:33:09.701Z,12.29
2023-05-04T16:35:37.766Z,13.01
2023-05-04T16:38:05.941Z,13.13
2023-05-04T16:40:33.108Z,13.18
2023-05-04T16:43:00.487Z,13.05
2023-05-04T16:45:31.428Z,12.91
2023-05-04T16:47:59.001Z,12.70
2023-05-04T16:50:26.257Z,12.55
2023-05-04T16:52:53.585Z,12.44
2023-05-04T16:55:21.174Z,12.30
2023-05-04T16:57:48.930Z,12.16
2023-05-04T17:00:17.163Z,12.09
2023-05-04T17:02:44.301Z,12.04
2023-05-04T17:05:11.971Z,11.96
2023-05-04T17:07:43.579Z,11.86
2023-05-04T17:10:10.923Z,11.81
2023-05-04T17:12:38.869Z,12.36
2023-05-04T17:15:06.750Z,12.92
2023-05-04T17:17:33.824Z,12.93
2023-05-04T17:20:01.156Z,12.71
2023-05-04T17:22:28.644Z,12.47
2023-05-04T17:24:55.699Z,12.33
2023-05-04T17:27:23.625Z,12.14
2023-05-04T17:29:51.282Z,12.02
2023-05-04T17:32:18.458Z,11.84
2023-05-04T17:34:45.916Z,11.75
2023-05-04T17:37:13.070Z,11.66
2023-05-04T17:39:40.188Z,11.61
2023-05-04T17:42:07.686Z,12.02
2023-05-04T17:44:35.012Z,12.40
2023-05-04T17:47:02.115Z,12.57
2023-05-04T17:49:29.600Z,12.45
2023-05-04T17:51:56.892Z,12.26
2023-05-04T17:54:24.020Z,12.03
2023-05-04T17:56:51.247Z,11.82
2023-05-04T17:59:18.737Z,11.76
2023-05-04T18:01:46.280Z,11.68
2023-05-04T18:04:13.455Z,11.51
2023-05-04T18:06:40.713Z,11.48
2023-05-04T18:09:07.824Z,11.89
2023-05-04T18:11:35.232Z,12.31
2023-05-04T18:14:02.744Z,12.28
2023-05-04T18:16:29.934Z,11.98
2023-05-04T18:18:58.389Z,11.87
2023-05-04T18:21:26.281Z,11.78
2023-05-04T18:23:53.443Z,11.63
2023-05-04T18:26:22.952Z,11.52
2023-05-04T18:28:50.598Z,11.41
2023-05-04T18:31:17.784Z,11.32
2023-05-04T18:33:45.518Z,11.26
2023-05-04T18:36:13.088Z,11.20
2023-05-04T18:38:41.047Z,11.13
2023-05-04T18:41:08.079Z,11.07
2023-05-04T18:43:35.549Z,11.00
2023-05-04T18:46:08.916Z,10.97
2023-05-04T18:48:36.764Z,10.95
2023-05-04T18:51:04.317Z,10.94
2023-05-04T18:53:31.626Z,11.38
2023-05-04T18:56:07.015Z,11.88
2023-05-04T18:58:35.907Z,11.91
2023-05-04T19:01:08.657Z,11.90
2023-05-04T19:03:35.735Z,11.71
2023-05-04T19:06:03.260Z,11.52
2023-05-04T19:08:30.338Z,11.39
2023-05-04T19:11:03.080Z,11.24
2023-05-04T19:13:31.617Z,11.13
2023-05-04T19:15:58.819Z,10.99
2023-05-04T19:18:25.924Z,10.91
2023-05-04T19:20:54.746Z,10.87
2023-05-04T19:23:21.876Z,10.83
2023-05-04T19:25:49.178Z,10.74
2023-05-04T19:28:16.463Z,10.69
2023-05-04T19:30:43.624Z,10.67
2023-05-04T19:33:10.722Z,10.59
2023-05-04T19:35:37.977Z,10.56
2023-05-04T19:49:54.657Z,10.58
2023-05-04T19:52:21.904Z,10.53
2023-05-04T19:54:53.785Z,10.52
2023-05-04T19:57:21.723Z,10.47
2023-05-04T19:59:49.037Z,10.42
2023-05-04T20:02:16.112Z,10.42
2023-05-04T20:04:43.435Z,10.39
2023-05-04T20:07:10.837Z,10.37
2023-05-04T20:09:41.128Z,10.26
2023-05-04T20:12:08.632Z,10.26
2023-05-04T20:14:36.244Z,10.21
2023-05-04T20:17:04.061Z,10.22
2023-05-04T20:19:31.336Z,10.19
2023-05-04T20:21:59.016Z,10.16
2023-05-04T20:24:26.892Z,10.14
2023-05-04T20:26:54.280Z,10.10
2023-05-04T20:29:22.046Z,10.09
2023-05-04T20:31:49.369Z,10.08
2023-05-04T20:34:18.794Z,10.05
2023-05-04T20:36:47.165Z,9.97
2023-05-04T20:39:14.343Z,9.94
2023-05-04T20:41:41.537Z,9.95
2023-05-04T20:44:08.940Z,9.95
2023-05-04T20:46:36.182Z,9.94
2023-05-04T20:49:04.012Z,9.97
2023-05-04T20:51:31.682Z,9.97
2023-05-04T20:53:58.869Z,9.97
2023-05-04T20:56:26.508Z,9.96
2023-05-04T20:58:53.735Z,9.96
2023-05-04T21:01:21.637Z,9.97
2023-05-04T21:03:48.945Z,9.96
2023-05-04T21:06:16.312Z,9.94
2023-05-04T21:08:43.419Z,9.94
2023-05-04T21:11:10.538Z,9.93
2023-05-04T21:13:37.771Z,9.96
2023-05-04T21:16:05.517Z,9.97
2023-05-04T21:18:32.510Z,9.96
2023-05-04T21:20:59.725Z,9.94
2023-05-04T21:23:27.266Z,9.95
2023-05-04T21:26:02.538Z,9.91
2023-05-04T21:28:30.838Z,9.87
2023-05-04T21:30:59.015Z,9.81
2023-05-04T21:33:26.448Z,9.78
2023-05-04T21:35:53.802Z,9.76
2023-05-04T21:38:22.219Z,9.74
2023-05-04T21:40:49.780Z,9.69
2023-05-04T21:43:17.138Z,9.69
2023-05-04T21:45:44.521Z,10.01
2023-05-04T21:48:11.844Z,10.55
2023-05-04T21:50:39.751Z,10.94
2023-05-04T21:53:06.959Z,11.00
2023-05-04T21:56:56.528Z,10.86
2023-05-04T21:59:24.296Z,10.69
2023-05-04T22:01:51.410Z,10.53
2023-05-04T22:04:18.926Z,10.29
2023-05-04T22:06:47.775Z,10.20
2023-05-04T22:09:16.035Z,10.06
2023-05-04T22:11:43.129Z,9.91
2023-05-04T22:14:10.907Z,9.77
2023-05-04T22:16:38.034Z,9.71
2023-05-04T22:19:05.157Z,9.89
2023-05-04T22:21:33.149Z,10.40
2023-05-04T22:24:00.594Z,10.74
2023-05-04T22:26:27.744Z,10.90
2023-05-04T22:28:55.116Z,10.94
2023-05-04T22:31:22.468Z,10.97
2023-05-04T22:33:49.608Z,10.86
2023-05-04T22:36:17.073Z,10.73
2023-05-04T22:38:44.230Z,10.67
2023-05-04T22:41:13.617Z,10.62
2023-05-04T22:43:41.415Z,10.56
2023-05-04T22:46:14.763Z,10.53
2023-05-04T22:48:42.413Z,10.48
2023-05-04T22:51:09.482Z,10.40
2023-05-04T22:53:36.671Z,10.30
2023-05-04T22:56:03.874Z,10.49
2023-05-04T22:58:30.950Z,10.98
2023-05-04T23:00:58.106Z,11.14
2023-05-04T23:03:25.562Z,11.08
2023-05-04T23:05:52.850Z,11.02
2023-05-04T23:08:20.450Z,10.91
2023-05-04T23:10:47.819Z,10.77
2023-05-04T23:13:14.921Z,10.69
2023-05-04T23:15:42.439Z,10.63
2023-05-04T23:18:10.640Z,10.53
2023-05-04T23:20:37.816Z,10.47
2023-05-04T23:23:04.998Z,10.42
2023-05-04T23:25:32.163Z,10.32
2023-05-04T23:27:59.169Z,10.57
2023-05-04T23:30:26.608Z,10.94
2023-05-04T23:32:53.719Z,11.10
2023-05-04T23:35:21.149Z,11.17
2023-05-04T23:37:48.377Z,11.07
2023-05-04T23:40:15.927Z,10.87
2023-05-04T23:42:43.006Z,10.73
2023-05-04T23:45:10.763Z,10.61
2023-05-04T23:47:38.255Z,10.51
2023-05-04T23:50:06.455Z,10.47
2023-05-04T23:52:34.036Z,10.67
2023-05-04T23:55:01.185Z,11.14
2023-05-04T23:57:28.276Z,11.18
2023-05-04T23:59:55.338Z,11.20
